Time;durP1;ratioP1;P1;durP2;ratioP2;P2;SDS_P1;SDS_P2;PMS_P1;PMS_P2;Temp;Humidity;BMP_temperature;BMP_pressure;BME280_temperature;BME280_humidity;BME280_pressure;Samples;Min_cycle;Max_cycle;Signal;HPM_P1;HPM_P2
2023/11/27 00:00:24;;;;;;;10.18;4.32;;;;;;;-1.63;74.79;97216.78;5027167;28;20098;-41
2023/11/27 00:02:52;;;;;;;10.02;4.07;;;;;;;-1.45;74.82;97232.41;5012627;28;20037;-40
2023/11/27 00:05:18;;;;;;;11.77;4.97;;;;;;;-1.46;75.00;97225.66;5023523;28;20716;-40
2023/11/27 00:07:43;;;;;;;12.23;4.60;;;;;;;-1.43;74.86;97222.19;5026525;28;20053;-49
2023/11/27 00:10:09;;;;;;;12.38;4.75;;;;;;;-1.47;75.01;97228.25;4999051;28;20395;-40
2023/11/27 00:12:35;;;;;;;12.27;4.88;;;;;;;-1.48;75.26;97229.97;5028348;28;20053;-39
2023/11/27 00:15:01;;;;;;;8.70;3.90;;;;;;;-1.64;75.20;97199.84;5028880;28;20180;-39
2023/11/27 00:17:29;;;;;;;9.93;4.10;;;;;;;-1.48;75.31;97227.41;5029131;28;20505;-40
2023/11/27 00:19:55;;;;;;;13.10;4.20;;;;;;;-1.49;75.10;97235.09;5027238;28;20034;-40
2023/11/27 00:22:21;;;;;;;10.23;4.00;;;;;;;-1.51;75.07;97219.00;5027844;28;20041;-41
2023/11/27 00:24:47;;;;;;;11.88;4.07;;;;;;;-1.55;74.96;97208.06;5022909;28;20048;-41
2023/11/27 00:27:13;;;;;;;10.50;4.43;;;;;;;-1.57;74.79;97194.53;5035742;28;20490;-41
2023/11/27 00:29:39;;;;;;;12.30;4.53;;;;;;;-1.57;75.13;97180.97;5028574;28;20052;-40
2023/11/27 00:32:06;;;;;;;12.88;4.75;;;;;;;-1.58;75.00;97169.94;5027871;28;20045;-41
2023/11/27 00:34:31;;;;;;;12.02;4.55;;;;;;;-1.64;75.05;97137.00;5026247;28;20044;-40
2023/11/27 00:36:58;;;;;;;11.02;4.65;;;;;;;-1.63;75.19;97120.84;5029223;28;20052;-42
2023/11/27 00:39:24;;;;;;;13.07;5.28;;;;;;;-1.67;75.09;97120.97;5026902;28;20095;-41
2023/11/27 00:41:50;;;;;;;12.05;5.03;;;;;;;-1.71;75.45;97104.94;5025567;28;20083;-40
2023/11/27 00:44:16;;;;;;;12.10;4.18;;;;;;;-1.77;75.61;97113.56;5023800;28;20060;-40
2023/11/27 00:46:41;;;;;;;8.73;3.35;;;;;;;-1.82;76.04;97109.47;5026202;28;20041;-40
2023/11/27 00:49:08;;;;;;;15.68;4.57;;;;;;;-1.86;76.05;97101.09;5027510;28;20045;-40
2023/11/27 00:51:34;;;;;;;10.23;4.43;;;;;;;-1.85;76.05;97096.84;5028046;28;20041;-40
2023/11/27 00:54:00;;;;;;;9.82;4.32;;;;;;;-1.88;76.01;97081.63;5009949;28;20051;-39
2023/11/27 00:56:27;;;;;;;11.25;4.40;;;;;;;-2.06;76.39;97047.34;5028364;28;20565;-44
2023/11/27 00:58:53;;;;;;;10.18;4.38;;;;;;;-1.86;76.40;97079.88;5027522;28;20042;-40
2023/11/27 01:01:19;;;;;;;11.73;4.05;;;;;;;-1.80;76.40;97069.53;5028097;28;20045;-40
2023/11/27 01:03:45;;;;;;;10.27;4.57;;;;;;;-2.02;76.18;97033.66;5027356;28;20041;-40
2023/11/27 01:06:13;;;;;;;10.20;4.07;;;;;;;-1.97;76.85;97031.81;5026660;28;20433;-40
2023/11/27 01:08:40;;;;;;;8.60;3.58;;;;;;;-1.88;76.26;97046.81;5025176;28;20689;-40
2023/11/27 01:11:06;;;;;;;9.52;4.22;;;;;;;-1.88;76.60;97043.44;5027251;28;20045;-40
2023/11/27 01:13:32;;;;;;;8.73;3.67;;;;;;;-1.89;76.75;97034.16;5027789;28;20037;-40
2023/11/27 01:15:57;;;;;;;10.50;4.38;;;;;;;-1.90;76.66;97022.28;5026639;28;20200;-40
2023/11/27 01:18:23;;;;;;;9.98;3.83;;;;;;;-2.05;76.65;96994.72;5028579;28;20045;-40
2023/11/27 01:20:50;;;;;;;11.68;4.20;;;;;;;-1.85;76.43;96993.28;5042414;28;20505;-40
2023/11/27 01:23:16;;;;;;;7.80;3.80;;;;;;;-1.81;76.17;96996.56;5026539;28;20539;-40
2023/11/27 01:25:41;;;;;;;12.35;4.65;;;;;;;-1.84;76.47;96989.03;5022248;28;20037;-39
2023/11/27 01:28:09;;;;;;;10.80;3.97;;;;;;;-1.85;76.53;96972.91;5011197;28;20513;-40
2023/11/27 01:30:34;;;;;;;9.65;4.07;;;;;;;-1.83;76.51;96970.31;5026585;28;20045;-40
2023/11/27 01:33:00;;;;;;;11.35;4.90;;;;;;;-1.80;76.48;96962.59;5027641;28;20044;-40
2023/11/27 01:35:26;;;;;;;11.95;4.25;;;;;;;-1.77;76.59;96942.13;5008999;28;20052;-40
2023/11/27 01:37:52;;;;;;;9.57;4.13;;;;;;;-1.79;76.55;96934.56;5027355;28;20075;-40
2023/11/27 01:40:18;;;;;;;10.70;4.32;;;;;;;-1.77;76.58;96930.25;5024974;28;20540;-40
2023/11/27 01:42:44;;;;;;;8.82;4.18;;;;;;;-1.81;76.36;96915.94;5029749;28;20033;-40
2023/11/27 01:45:10;;;;;;;8.65;3.67;;;;;;;-1.75;76.11;96897.94;5007401;28;20462;-39
2023/11/27 01:47:36;;;;;;;7.60;3.58;;;;;;;-1.75;76.36;96894.56;5026005;28;20045;-38
2023/11/27 01:50:03;;;;;;;8.95;4.07;;;;;;;-1.76;76.12;96896.25;5026814;28;20041;-48
2023/11/27 01:52:31;;;;;;;9.02;4.00;;;;;;;-1.73;76.64;96908.88;5007945;28;20037;-39
2023/11/27 01:54:58;;;;;;;11.07;4.15;;;;;;;-1.81;76.67;96898.13;5020083;28;20132;-38
2023/11/27 01:57:24;;;;;;;9.80;3.90;;;;;;;-1.80;76.83;96889.59;5024896;28;20050;-39
2023/11/27 01:59:51;;;;;;;12.20;3.95;;;;;;;-1.78;76.71;96890.38;5026338;28;20057;-38
2023/11/27 02:02:18;;;;;;;9.73;3.78;;;;;;;-1.78;76.81;96881.94;5041693;28;20067;-39
2023/11/27 02:04:44;;;;;;;10.77;3.65;;;;;;;-1.91;76.56;96819.53;5007884;28;20530;-39
2023/11/27 02:07:14;;;;;;;9.50;4.43;;;;;;;-1.68;76.48;96831.53;5025255;28;20092;-38
2023/11/27 02:09:40;;;;;;;6.03;2.92;;;;;;;-1.69;76.27;96832.41;5026070;28;20045;-38
2023/11/27 02:12:05;;;;;;;7.60;3.08;;;;;;;-1.72;76.52;96877.47;5040710;28;20094;-38
2023/11/27 02:14:31;;;;;;;6.53;3.20;;;;;;;-1.73;76.55;96865.59;5002576;28;20088;-38
2023/11/27 02:16:58;;;;;;;7.88;3.08;;;;;;;-1.73;76.43;96831.69;5003977;28;20602;-39
2023/11/27 02:19:23;;;;;;;8.15;3.47;;;;;;;-1.81;77.34;96815.81;4990740;28;20171;-38
2023/11/27 02:21:49;;;;;;;9.50;3.17;;;;;;;-1.78;76.96;96824.19;5024951;28;20532;-39
2023/11/27 02:24:15;;;;;;;10.35;3.40;;;;;;;-1.80;77.28;96855.66;5009269;28;20041;-39
2023/11/27 02:26:42;;;;;;;8.00;4.05;;;;;;;-1.77;77.54;96830.94;5027174;28;20041;-39
2023/11/27 02:29:08;;;;;;;6.85;3.22;;;;;;;-1.78;77.54;96796.16;5025796;28;20087;-38
2023/11/27 02:31:35;;;;;;;10.93;3.28;;;;;;;-1.78;78.17;96795.38;5026414;28;20037;-38
2023/11/27 02:34:01;;;;;;;7.63;3.17;;;;;;;-1.84;78.42;96811.66;5041737;28;20049;-39
2023/11/27 02:36:32;;;;;;;8.18;3.67;;;;;;;-1.73;78.08;96847.78;5026448;28;20037;-38
2023/11/27 02:38:58;;;;;;;8.57;3.40;;;;;;;-1.70;77.90;96793.41;5025419;28;20049;-40
2023/11/27 02:41:24;;;;;;;9.88;3.20;;;;;;;-1.61;77.70;96771.88;5007946;28;20536;-39
2023/11/27 02:43:50;;;;;;;6.82;3.25;;;;;;;-1.80;77.80;96719.03;5023005;28;20037;-38
2023/11/27 02:46:16;;;;;;;6.18;3.30;;;;;;;-1.71;78.42;96735.72;5039433;28;20048;-38
2023/11/27 02:48:42;;;;;;;8.23;3.63;;;;;;;-1.64;78.50;96744.81;5025288;28;20065;-38
2023/11/27 02:51:08;;;;;;;6.53;3.22;;;;;;;-1.76;78.25;96719.75;5025458;28;20050;-39
2023/11/27 02:53:35;;;;;;;7.43;3.17;;;;;;;-1.55;78.35;96736.88;5026679;28;20041;-38
2023/11/27 02:56:01;;;;;;;8.23;3.75;;;;;;;-1.51;78.51;96738.41;5023704;28;20087;-38
2023/11/27 02:58:27;;;;;;;7.40;2.85;;;;;;;-1.44;78.51;96723.75;5026181;28;20048;-38
2023/11/27 03:00:53;;;;;;;6.00;2.85;;;;;;;-1.61;78.23;96678.50;5026022;28;20084;-39
2023/11/27 03:03:18;;;;;;;5.88;2.80;;;;;;;-1.36;78.40;96704.75;5019637;28;20049;-39
2023/11/27 03:05:46;;;;;;;7.95;3.08;;;;;;;-1.63;77.94;96648.88;5026004;28;20060;-38
2023/11/27 03:08:11;;;;;;;7.55;4.00;;;;;;;-1.29;78.30;96680.75;5025877;28;20529;-39
2023/11/27 03:10:38;;;;;;;8.95;3.38;;;;;;;-1.29;78.27;96660.38;5025096;28;20460;-39
2023/11/27 03:13:04;;;;;;;6.90;3.50;;;;;;;-1.26;77.95;96646.69;5023620;28;20145;-39
2023/11/27 03:15:30;;;;;;;5.47;2.72;;;;;;;-1.22;77.86;96652.50;5037112;28;20525;-39
2023/11/27 03:17:56;;;;;;;5.32;2.70;;;;;;;-1.23;78.35;96649.13;5026980;28;20045;-40
2023/11/27 03:20:22;;;;;;;7.10;3.13;;;;;;;-1.35;78.78;96594.34;5024987;28;20037;-38
2023/11/27 03:22:48;;;;;;;6.90;3.05;;;;;;;-1.13;78.71;96644.50;5009151;28;20497;-41
2023/11/27 03:25:14;;;;;;;5.78;2.75;;;;;;;-1.05;78.57;96704.53;5026095;28;20091;-39
2023/11/27 03:27:40;;;;;;;6.18;3.55;;;;;;;-1.06;78.81;96669.72;5008578;28;20041;-39
2023/11/27 03:30:08;;;;;;;8.07;3.13;;;;;;;-1.23;78.80;96610.06;5024179;28;20462;-39
2023/11/27 03:32:33;;;;;;;7.43;3.25;;;;;;;-1.14;79.01;96613.09;5020959;28;20077;-39
2023/11/27 03:35:00;;;;;;;10.38;3.10;;;;;;;-0.89;79.05;96623.22;5056645;28;20505;-39
2023/11/27 03:37:26;;;;;;;6.25;2.80;;;;;;;-0.93;79.03;96614.84;5009428;28;20045;-38
2023/11/27 03:39:52;;;;;;;6.82;2.95;;;;;;;-0.94;79.48;96597.88;5012074;28;20422;-38
2023/11/27 03:42:18;;;;;;;9.65;3.45;;;;;;;-0.92;79.89;96575.72;5024899;28;20041;-39
2023/11/27 03:44:44;;;;;;;5.57;2.58;;;;;;;-0.92;79.99;96547.66;5025481;28;20043;-39
2023/11/27 03:47:10;;;;;;;6.75;2.85;;;;;;;-0.89;80.70;96539.09;5024816;28;20411;-40
2023/11/27 03:49:37;;;;;;;5.10;2.33;;;;;;;-0.87;80.30;96561.06;5025435;28;20048;-38
2023/11/27 03:52:03;;;;;;;6.57;2.75;;;;;;;-0.82;80.77;96667.97;5024745;28;20080;-38
2023/11/27 03:54:28;;;;;;;4.05;2.50;;;;;;;-0.81;80.68;96720.66;5009229;28;20065;-38
2023/11/27 03:56:54;;;;;;;6.50;3.20;;;;;;;-0.75;80.71;96710.22;5024951;28;20049;-39
2023/11/27 03:59:20;;;;;;;7.03;2.50;;;;;;;-0.62;80.63;96693.56;5015462;28;20042;-37
2023/11/27 04:01:47;;;;;;;6.43;2.55;;;;;;;-0.50;80.42;96682.06;5028997;28;20045;-39
2023/11/27 04:04:13;;;;;;;6.60;3.13;;;;;;;-0.43;80.71;96668.19;5011756;28;20493;-40
2023/11/27 04:06:38;;;;;;;11.13;3.20;;;;;;;-0.57;80.49;96619.41;5028312;28;20044;-41
2023/11/27 04:09:04;;;;;;;7.53;2.67;;;;;;;-0.34;80.50;96637.19;5026441;28;20037;-39
2023/11/27 04:11:31;;;;;;;7.82;3.17;;;;;;;-0.27;80.84;96633.50;5026693;28;20072;-40
2023/11/27 04:13:57;;;;;;;7.43;3.10;;;;;;;-0.22;80.74;96620.56;5028142;28;20098;-39
2023/11/27 04:16:24;;;;;;;6.45;3.45;;;;;;;-0.34;80.15;96593.81;4990899;28;20084;-46
2023/11/27 04:18:50;;;;;;;6.15;2.85;;;;;;;-0.13;80.43;96605.69;5028588;28;20046;-39
2023/11/27 04:21:17;;;;;;;7.07;2.97;;;;;;;-0.43;80.65;96544.00;5027385;28;20071;-39
2023/11/27 04:23:46;;;;;;;6.55;2.60;;;;;;;-0.09;80.14;96581.69;5024448;28;20041;-40
2023/11/27 04:26:14;;;;;;;6.15;2.83;;;;;;;-0.05;80.81;96636.00;5029320;28;20041;-39
2023/11/27 04:28:42;;;;;;;5.55;2.40;;;;;;;-0.34;80.66;96578.50;5028032;28;20033;-40
2023/11/27 04:31:08;;;;;;;7.68;2.88;;;;;;;0.02;80.66;96624.66;5011498;28;20102;-41
2023/11/27 04:33:34;;;;;;;5.60;2.83;;;;;;;0.06;81.11;96615.97;5027627;28;20049;-39
2023/11/27 04:36:01;;;;;;;5.63;2.30;;;;;;;0.12;81.18;96602.94;5007729;28;20095;-39
2023/11/27 04:38:28;;;;;;;5.55;1.80;;;;;;;-0.02;81.08;96578.00;5039513;28;20633;-39
2023/11/27 04:40:53;;;;;;;5.03;2.30;;;;;;;0.00;81.57;96560.06;5026455;28;20460;-38
2023/11/27 04:43:22;;;;;;;3.50;2.60;;;;;;;0.26;81.35;96589.59;5027230;28;20056;-39
2023/11/27 04:45:48;;;;;;;8.85;2.80;;;;;;;0.30;81.57;96580.91;5019779;28;20052;-38
2023/11/27 04:48:15;;;;;;;9.38;2.88;;;;;;;0.34;81.57;96572.19;5028826;28;20664;-39
2023/11/27 04:50:41;;;;;;;5.07;2.08;;;;;;;0.36;81.38;96555.09;5027933;28;20159;-39
2023/11/27 04:53:07;;;;;;;4.32;2.10;;;;;;;0.24;81.41;96519.84;5006400;28;20042;-39
2023/11/27 04:55:33;;;;;;;3.88;2.40;;;;;;;0.45;81.63;96546.19;5026863;28;20048;-39
2023/11/27 04:57:59;;;;;;;6.43;2.38;;;;;;;0.48;81.67;96561.34;5010710;28;20065;-41
2023/11/27 05:00:25;;;;;;;5.75;2.17;;;;;;;0.54;81.70;96558.53;5027822;28;20487;-37
2023/11/27 05:02:51;;;;;;;4.57;2.13;;;;;;;0.57;81.87;96564.38;5026939;28;20053;-40
2023/11/27 05:05:17;;;;;;;4.47;1.90;;;;;;;0.61;81.79;96582.94;5023693;28;20060;-41
2023/11/27 05:07:43;;;;;;;3.78;1.85;;;;;;;0.62;81.93;96593.09;5027071;28;20045;-37
2023/11/27 05:10:11;;;;;;;3.20;1.85;;;;;;;0.64;82.36;96573.38;5025755;28;20033;-40
2023/11/27 05:12:36;;;;;;;2.65;1.60;;;;;;;0.70;82.33;96560.34;5026262;28;20044;-39
2023/11/27 05:15:06;;;;;;;3.30;2.05;;;;;;;0.70;82.17;96555.22;5025819;28;20042;-38
2023/11/27 05:17:33;;;;;;;3.95;2.20;;;;;;;0.73;82.61;96547.41;5026852;28;20045;-40
2023/11/27 05:19:59;;;;;;;3.30;1.80;;;;;;;0.73;82.49;96544.84;5025743;28;20041;-40
2023/11/27 05:22:25;;;;;;;4.47;1.85;;;;;;;0.77;83.00;96541.28;5026377;28;20429;-40
2023/11/27 05:24:51;;;;;;;5.97;1.85;;;;;;;0.83;83.09;96538.44;4993741;28;20042;-38
2023/11/27 05:27:17;;;;;;;3.42;1.70;;;;;;;0.84;82.75;96536.69;5025307;28;20179;-39
2023/11/27 05:29:43;;;;;;;4.40;1.73;;;;;;;0.83;83.29;96524.84;5024902;28;20604;-39
2023/11/27 05:32:09;;;;;;;4.28;1.95;;;;;;;0.91;83.25;96525.28;5026672;28;20052;-40
2023/11/27 05:34:36;;;;;;;3.33;1.88;;;;;;;0.94;83.38;96519.22;5026677;28;20041;-38
2023/11/27 05:37:08;;;;;;;4.03;2.20;;;;;;;0.79;83.41;96500.28;5028029;28;20041;-37
2023/11/27 05:39:35;;;;;;;2.67;1.70;;;;;;;1.00;83.49;96545.31;5041416;28;20047;-38
2023/11/27 05:42:03;;;;;;;2.50;1.58;;;;;;;1.03;83.88;96529.84;5026614;28;20036;-38
2023/11/27 05:44:29;;;;;;;3.80;1.98;;;;;;;1.10;83.93;96531.19;5033758;28;20034;-38
2023/11/27 05:46:56;;;;;;;4.43;2.00;;;;;;;1.08;83.96;96529.63;5036892;28;20564;-37
2023/11/27 05:49:22;;;;;;;2.50;1.65;;;;;;;1.11;84.22;96514.13;5034303;28;20045;-39
2023/11/27 05:51:48;;;;;;;3.13;1.60;;;;;;;1.15;84.59;96513.09;5032525;28;20056;-38
2023/11/27 05:54:14;;;;;;;3.72;1.50;;;;;;;1.17;84.63;96524.91;5033486;28;20122;-37
2023/11/27 05:56:40;;;;;;;4.22;1.55;;;;;;;1.22;84.58;96509.31;5035416;28;20148;-38
2023/11/27 05:59:07;;;;;;;4.07;1.98;;;;;;;1.12;85.16;96485.09;5035807;28;20040;-38
2023/11/27 06:01:33;;;;;;;3.80;1.48;;;;;;;1.30;85.22;96498.72;5016522;28;20041;-38
2023/11/27 06:03:59;;;;;;;7.80;2.08;;;;;;;1.30;85.29;96491.06;5015273;28;20048;-38
2023/11/27 06:06:26;;;;;;;7.15;1.77;;;;;;;1.40;85.39;96498.22;5032151;28;20052;-37
2023/11/27 06:08:52;;;;;;;3.75;1.58;;;;;;;1.43;85.28;96492.94;5034956;28;20091;-37
2023/11/27 06:11:18;;;;;;;4.72;1.25;;;;;;;1.32;85.26;96479.00;5028203;28;20053;-38
2023/11/27 06:13:44;;;;;;;2.60;1.60;;;;;;;1.48;85.54;96498.66;5028399;28;20886;-38
2023/11/27 06:16:10;;;;;;;4.22;1.60;;;;;;;1.27;85.58;96458.75;5026511;28;20049;-39
2023/11/27 06:18:36;;;;;;;2.83;1.40;;;;;;;1.59;85.66;96496.38;5020597;28;20041;-38
2023/11/27 06:21:03;;;;;;;2.88;1.48;;;;;;;1.65;85.83;96485.00;5018890;28;20407;-38
2023/11/27 06:23:29;;;;;;;2.53;1.67;;;;;;;1.72;86.03;96501.75;5021151;28;20084;-39
2023/11/27 06:25:56;;;;;;;3.03;1.40;;;;;;;1.72;85.54;96493.22;5023659;28;20037;-38
2023/11/27 06:28:22;;;;;;;1.45;1.20;;;;;;;1.73;86.04;96492.31;5018458;28;20122;-39
2023/11/27 06:30:50;;;;;;;1.50;1.00;;;;;;;1.78;86.14;96496.28;5022949;28;20052;-38
2023/11/27 06:33:16;;;;;;;4.85;1.48;;;;;;;1.81;86.86;96490.19;5023891;28;20049;-40
2023/11/27 06:35:43;;;;;;;2.63;1.60;;;;;;;1.90;87.73;96482.88;5024095;28;20417;-39
2023/11/27 06:38:09;;;;;;;5.55;1.88;;;;;;;1.95;88.89;96475.78;5020772;28;20049;-39
2023/11/27 06:40:35;;;;;;;2.00;1.27;;;;;;;2.01;90.03;96472.06;5025160;28;20040;-38
2023/11/27 06:43:01;;;;;;;3.20;2.00;;;;;;;2.02;91.71;96482.25;5022930;28;20135;-38
2023/11/27 06:45:27;;;;;;;4.43;1.67;;;;;;;2.04;93.07;96475.28;5024018;28;20136;-37
2023/11/27 06:47:53;;;;;;;2.85;1.40;;;;;;;2.08;95.21;96470.84;5025000;28;20914;-38
2023/11/27 06:50:20;;;;;;;4.88;1.73;;;;;;;2.10;96.94;96469.03;5023358;28;20042;-38
2023/11/27 06:52:46;;;;;;;2.22;1.50;;;;;;;2.15;98.43;96473.94;5025060;28;20505;-37
2023/11/27 06:55:13;;;;;;;2.28;1.73;;;;;;;2.21;99.87;96461.59;5025103;28;20052;-36
2023/11/27 06:57:40;;;;;;;3.53;2.00;;;;;;;2.23;100.00;96475.16;5024017;28;20131;-42
2023/11/27 07:00:10;;;;;;;5.57;2.22;;;;;;;2.31;100.00;96461.94;5024770;28;20513;-37
2023/11/27 07:02:37;;;;;;;3.20;1.80;;;;;;;2.33;100.00;96447.31;5019814;28;20525;-37
2023/11/27 07:05:05;;;;;;;5.88;2.00;;;;;;;2.07;100.00;96390.59;5023589;28;20033;-38
2023/11/27 07:07:32;;;;;;;4.75;1.80;;;;;;;2.41;100.00;96427.22;5009160;28;20049;-37
2023/11/27 07:09:58;;;;;;;5.80;2.22;;;;;;;2.33;100.00;96419.97;5052167;28;20073;-39
2023/11/27 07:12:25;;;;;;;2.45;1.85;;;;;;;2.39;100.00;96418.81;5025112;28;20037;-38
2023/11/27 07:14:51;;;;;;;2.15;1.40;;;;;;;2.53;100.00;96434.25;5022948;28;20536;-39
2023/11/27 07:17:18;;;;;;;3.80;1.50;;;;;;;2.54;100.00;96441.88;5029824;28;20045;-36
2023/11/27 07:19:44;;;;;;;3.72;1.70;;;;;;;2.60;100.00;96419.38;5024801;28;20025;-38
2023/11/27 07:22:11;;;;;;;3.35;1.70;;;;;;;2.65;100.00;96410.50;5018378;28;20049;-38
2023/11/27 07:24:37;;;;;;;2.40;1.88;;;;;;;2.62;100.00;96408.09;5026834;28;20045;-38
2023/11/27 07:27:04;;;;;;;3.67;1.70;;;;;;;2.76;100.00;96428.69;5021198;28;20041;-38
2023/11/27 07:29:30;;;;;;;2.90;1.60;;;;;;;2.78;100.00;96424.28;5026142;28;20049;-39
2023/11/27 07:31:56;;;;;;;3.67;1.70;;;;;;;2.82;100.00;96419.84;5040936;28;20088;-37
2023/11/27 07:34:22;;;;;;;2.95;1.80;;;;;;;2.86;100.00;96406.75;5027068;28;20661;-38
2023/11/27 07:36:48;;;;;;;3.83;1.90;;;;;;;2.76;100.00;96399.66;5027873;28;20041;-39
2023/11/27 07:39:16;;;;;;;3.17;1.85;;;;;;;2.90;100.00;96422.78;4995768;28;20419;-38
2023/11/27 07:41:44;;;;;;;2.58;1.75;;;;;;;2.78;100.00;96401.22;5023111;28;20053;-38
2023/11/27 07:44:15;;;;;;;4.07;2.05;;;;;;;3.01;100.00;96417.88;5018398;28;20493;-38
2023/11/27 07:46:42;;;;;;;6.43;1.95;;;;;;;3.04;100.00;96427.13;4990016;28;20049;-37
2023/11/27 07:49:08;;;;;;;4.28;2.92;;;;;;;3.08;100.00;96426.06;5024728;28;20102;-38
2023/11/27 07:51:34;;;;;;;4.40;1.88;;;;;;;3.12;100.00;96428.38;5027897;28;20057;-38
2023/11/27 07:54:01;;;;;;;2.92;1.90;;;;;;;3.14;100.00;96423.16;5024203;28;20072;-39
2023/11/27 07:56:27;;;;;;;6.85;3.17;;;;;;;3.16;100.00;96417.00;5025997;28;20087;-39
2023/11/27 07:58:57;;;;;;;10.45;3.25;;;;;;;3.20;100.00;96390.25;4996326;28;20046;-38
2023/11/27 08:01:23;;;;;;;3.97;2.35;;;;;;;3.25;100.00;96392.56;5021788;28;20110;-38
2023/11/27 08:03:49;;;;;;;2.92;1.65;;;;;;;3.30;100.00;96403.38;5025654;28;20092;-37
2023/11/27 08:06:15;;;;;;;3.53;1.98;;;;;;;3.18;100.00;96384.41;5020155;28;20477;-39
2023/11/27 08:08:42;;;;;;;5.57;2.22;;;;;;;3.19;100.00;96404.00;5021796;28;20037;-36
2023/11/27 08:11:09;;;;;;;3.63;2.03;;;;;;;3.32;100.00;96406.69;5025691;28;20065;-38
2023/11/27 08:13:43;;;;;;;4.53;1.83;;;;;;;3.36;100.00;96411.56;5041095;28;20037;-38
2023/11/27 08:16:09;;;;;;;2.63;1.40;;;;;;;3.40;100.00;96391.69;5024787;28;20041;-38
2023/11/27 08:18:35;;;;;;;4.38;2.00;;;;;;;3.42;100.00;96405.25;5022216;28;20050;-38
2023/11/27 08:21:05;;;;;;;11.07;2.00;;;;;;;3.41;100.00;96393.31;5025463;28;20041;-38
2023/11/27 08:23:34;;;;;;;5.18;1.80;;;;;;;3.37;100.00;96371.31;5021785;28;20066;-41
2023/11/27 08:26:03;;;;;;;3.42;1.95;;;;;;;3.39;100.00;96361.78;5025786;28;20103;-38
2023/11/27 08:28:30;;;;;;;3.25;2.15;;;;;;;3.59;100.00;96404.25;5004168;28;20046;-39
2023/11/27 08:30:56;;;;;;;7.25;2.78;;;;;;;3.47;100.00;96356.19;5024730;28;20041;-38
2023/11/27 08:33:22;;;;;;;4.53;1.90;;;;;;;3.70;100.00;96396.75;5010835;28;20045;-37
2023/11/27 08:35:49;;;;;;;8.35;2.20;;;;;;;3.71;100.00;96391.53;5026852;28;20615;-38
2023/11/27 08:38:15;;;;;;;8.27;2.17;;;;;;;3.58;100.00;96380.31;5008840;28;20053;-38
2023/11/27 08:40:42;;;;;;;4.38;2.42;;;;;;;3.73;100.00;96392.25;5026449;28;20091;-38
2023/11/27 08:43:08;;;;;;;4.82;2.67;;;;;;;3.77;100.00;96337.19;5027670;28;20064;-37
2023/11/27 08:45:34;;;;;;;7.78;2.67;;;;;;;3.77;100.00;96328.66;5010542;28;20065;-37
2023/11/27 08:48:00;;;;;;;4.38;2.10;;;;;;;3.66;100.00;96295.13;4993410;28;20095;-37
2023/11/27 08:50:32;;;;;;;5.20;2.15;;;;;;;3.78;100.00;96305.47;5026917;28;20426;-37
2023/11/27 08:52:58;;;;;;;5.15;2.63;;;;;;;3.73;100.00;96304.09;5026603;28;20420;-37
2023/11/27 08:55:31;;;;;;;8.32;3.03;;;;;;;3.75;100.00;96330.50;4993347;28;20575;-38
2023/11/27 08:57:59;;;;;;;5.68;2.75;;;;;;;3.78;100.00;96350.88;5053326;28;20521;-39
2023/11/27 09:00:28;;;;;;;8.40;3.30;;;;;;;3.77;100.00;96357.75;5022680;28;20129;-38
2023/11/27 09:02:56;;;;;;;9.35;4.05;;;;;;;3.77;100.00;96356.91;5026913;28;20037;-38
2023/11/27 09:05:31;;;;;;;5.57;2.92;;;;;;;3.67;100.00;96348.13;5024522;28;20444;-37
2023/11/27 09:08:00;;;;;;;9.10;3.00;;;;;;;3.83;100.00;96331.69;5025967;28;20069;-37
2023/11/27 09:10:27;;;;;;;4.65;3.10;;;;;;;3.88;100.00;96331.41;5026675;28;20528;-38
2023/11/27 09:12:53;;;;;;;9.27;3.08;;;;;;;3.92;100.00;96332.88;5025372;28;20053;-37
2023/11/27 09:15:20;;;;;;;10.32;3.10;;;;;;;3.93;100.00;96341.41;5000150;28;20143;-39
2023/11/27 09:17:46;;;;;;;3.42;2.60;;;;;;;3.90;100.00;96362.16;5028456;28;20102;-37
2023/11/27 09:20:15;;;;;;;7.78;3.50;;;;;;;3.87;100.00;96368.31;5034345;28;20064;-37
2023/11/27 09:22:41;;;;;;;7.25;3.88;;;;;;;3.92;100.00;96376.56;5027469;28;20037;-37
2023/11/27 09:25:12;;;;;;;9.75;4.05;;;;;;;3.90;100.00;96378.38;5024431;28;20417;-36
2023/11/27 09:27:40;;;;;;;6.65;3.20;;;;;;;3.88;100.00;96374.25;5025169;28;20053;-37
2023/11/27 09:30:07;;;;;;;6.55;4.10;;;;;;;3.85;100.00;96395.81;5023956;28;20045;-37
2023/11/27 09:32:34;;;;;;;8.05;3.72;;;;;;;3.77;100.00;96401.41;5009508;28;20524;-41
2023/11/27 09:35:05;;;;;;;6.00;3.20;;;;;;;3.82;100.00;96390.88;5021080;28;20041;-38
2023/11/27 09:37:32;;;;;;;11.38;4.30;;;;;;;3.85;100.00;96382.97;5022891;28;20045;-38
2023/11/27 09:39:59;;;;;;;8.30;3.60;;;;;;;3.88;100.00;96375.06;5024308;28;20037;-37
2023/11/27 09:42:35;;;;;;;8.48;3.30;;;;;;;3.85;100.00;96367.56;5014305;28;20059;-36
2023/11/27 09:45:07;;;;;;;7.80;3.15;;;;;;;3.85;100.00;96354.72;5011768;28;20094;-37
2023/11/27 09:47:34;;;;;;;5.00;2.95;;;;;;;3.76;100.00;96330.44;5033406;28;20456;-36
2023/11/27 09:50:02;;;;;;;6.93;3.60;;;;;;;3.97;100.00;96356.56;5032736;28;20155;-37
2023/11/27 09:53:05;;;;;;;8.98;3.60;;;;;;;4.00;100.00;96366.63;5024801;28;20049;-40
2023/11/27 09:55:34;;;;;;;;;;;;;;;4.04;100.00;96352.66;5024926;28;20464;-38
2023/11/27 09:58:00;;;;;;;6.95;3.55;;;;;;;4.00;100.00;96369.19;5025134;28;19945;-38
2023/11/27 10:00:27;;;;;;;9.75;4.43;;;;;;;3.71;100.00;96336.75;5025002;28;20053;-38
2023/11/27 10:02:54;;;;;;;11.60;4.53;;;;;;;3.93;100.00;96374.78;5009840;28;20038;-38
2023/11/27 10:05:23;;;;;;;9.02;4.05;;;;;;;3.77;100.00;96334.63;5024201;28;20041;-37
2023/11/27 10:07:50;;;;;;;9.80;4.20;;;;;;;4.00;100.00;96371.78;5008726;28;20041;-37
2023/11/27 10:10:24;;;;;;;11.80;4.45;;;;;;;4.03;100.00;96363.84;5024217;28;20052;-37
2023/11/27 10:12:49;;;;;;;10.40;4.15;;;;;;;4.09;100.00;96353.22;5024873;28;20604;-38
2023/11/27 10:15:16;;;;;;;12.07;4.40;;;;;;;4.20;100.00;96366.22;5014052;28;20041;-37
2023/11/27 10:17:43;;;;;;;8.98;4.55;;;;;;;4.23;100.00;96367.78;5025289;28;20048;-38
2023/11/27 10:20:12;;;;;;;8.20;4.43;;;;;;;4.19;100.00;96346.56;5023954;28;20133;-37
2023/11/27 10:22:42;;;;;;;10.00;4.78;;;;;;;4.19;100.00;96348.31;5025454;28;20048;-38
2023/11/27 10:25:13;;;;;;;10.55;4.38;;;;;;;4.21;100.00;96354.19;5006897;28;20049;-39
2023/11/27 10:27:44;;;;;;;12.88;4.97;;;;;;;4.20;100.00;96343.09;5023225;28;20091;-37
2023/11/27 10:30:20;;;;;;;10.38;4.35;;;;;;;4.22;100.00;96341.25;4993834;28;20041;-37
2023/11/27 10:32:47;;;;;;;6.03;3.38;;;;;;;4.15;100.00;96332.28;5008472;28;20041;-40
2023/11/27 10:35:15;;;;;;;11.32;3.75;;;;;;;4.19;100.00;96356.03;4992225;28;20033;-41
2023/11/27 10:37:42;;;;;;;7.68;3.65;;;;;;;4.20;100.00;96342.25;5037121;28;20049;-39
2023/11/27 10:40:16;;;;;;;6.85;3.63;;;;;;;3.94;100.00;96305.34;5022534;28;20457;-40
2023/11/27 10:42:49;;;;;;;7.43;3.70;;;;;;;4.09;100.00;96330.06;5040787;28;20506;-41
2023/11/27 10:45:20;;;;;;;5.13;3.00;;;;;;;4.11;100.00;96325.69;5024569;28;20033;-40
2023/11/27 10:47:51;;;;;;;7.53;4.20;;;;;;;4.16;100.00;96320.25;5025441;28;20429;-41
2023/11/27 10:50:18;;;;;;;5.88;3.20;;;;;;;4.18;100.00;96318.41;5029604;28;20049;-39
2023/11/27 10:52:48;;;;;;;8.35;3.75;;;;;;;3.98;100.00;96290.56;5028537;28;20041;-42
2023/11/27 10:55:17;;;;;;;5.60;3.25;;;;;;;4.17;100.00;96320.16;5034101;28;20119;-40
2023/11/27 10:57:48;;;;;;;9.30;4.00;;;;;;;4.02;100.00;96289.44;5023003;28;20073;-38
2023/11/27 11:00:24;;;;;;;10.27;4.88;;;;;;;4.18;100.00;96298.69;5031103;28;20537;-38
2023/11/27 11:02:51;;;;;;;11.60;4.78;;;;;;;4.19;100.00;96300.31;5030553;28;20052;-37
2023/11/27 11:05:26;;;;;;;9.18;4.47;;;;;;;4.18;100.00;96296.13;5037362;28;20544;-38
2023/11/27 11:07:55;;;;;;;9.57;4.30;;;;;;;4.20;100.00;96311.41;5035029;28;20045;-37
2023/11/27 11:10:26;;;;;;;7.60;4.20;;;;;;;4.11;100.00;96306.88;5020685;28;20191;-37
2023/11/27 11:12:56;;;;;;;9.30;4.47;;;;;;;4.11;100.00;96309.44;5012400;28;20055;-38
2023/11/27 11:15:31;;;;;;;7.40;3.88;;;;;;;4.07;100.00;96302.84;5028808;28;20136;-38
2023/11/27 11:18:26;;;;;;;9.73;4.30;;;;;;;3.98;100.00;96308.56;5027883;28;20037;-38
2023/11/27 11:21:17;;;;;;;12.23;4.50;;;;;;;3.91;100.00;96314.97;5029526;28;20041;-36
2023/11/27 11:24:22;;;;;;;8.68;4.85;;;;;;;3.82;100.00;96313.81;5030088;28;20481;-36
2023/11/27 11:27:16;;;;;;;11.73;4.35;;;;;;;3.82;100.00;96300.97;5025800;28;20053;-37
2023/11/27 11:29:44;;;;;;;12.95;5.20;;;;;;;3.80;100.00;96301.06;5010627;28;20049;-38
2023/11/27 11:32:16;;;;;;;11.68;5.32;;;;;;;3.80;100.00;96293.34;5011973;28;20041;-39
2023/11/27 11:34:54;;;;;;;15.10;4.35;;;;;;;3.78;100.00;96315.72;5022663;28;20111;-37